sensor_id;sensor_type;location;lat;lon;timestamp;P1;durP1;ratioP1;P2;durP2;ratioP2
44476;SDS011;30180;44.788;10.366;2024-01-15T00:01:41;7.63;;;5.18;;
44476;SDS011;30180;44.788;10.366;2024-01-15T00:04:10;8.70;;;5.30;;
44476;SDS011;30180;44.788;10.366;2024-01-15T00:06:40;7.72;;;5.00;;
44476;SDS011;30180;44.788;10.366;2024-01-15T00:09:08;8.32;;;5.13;;
44476;SDS011;30180;44.788;10.366;2024-01-15T00:11:37;7.57;;;5.60;;
44476;SDS011;30180;44.788;10.366;2024-01-15T00:14:08;7.47;;;5.00;;
44476;SDS011;30180;44.788;10.366;2024-01-15T00:16:36;8.98;;;5.95;;
44476;SDS011;30180;44.788;10.366;2024-01-15T00:19:05;7.45;;;4.95;;
44476;SDS011;30180;44.788;10.366;2024-01-15T00:21:34;8.27;;;5.03;;
44476;SDS011;30180;44.788;10.366;2024-01-15T00:24:04;8.80;;;5.22;;
44476;SDS011;30180;44.788;10.366;2024-01-15T00:26:32;6.80;;;4.78;;
44476;SDS011;30180;44.788;10.366;2024-01-15T00:29:01;9.32;;;5.55;;
44476;SDS011;30180;44.788;10.366;2024-01-15T00:31:31;6.88;;;5.03;;
44476;SDS011;30180;44.788;10.366;2024-01-15T00:34:00;7.68;;;5.10;;
44476;SDS011;30180;44.788;10.366;2024-01-15T00:36:28;7.30;;;4.82;;
44476;SDS011;30180;44.788;10.366;2024-01-15T00:38:57;8.52;;;5.45;;
44476;SDS011;30180;44.788;10.366;2024-01-15T00:41:26;8.73;;;5.53;;
44476;SDS011;30180;44.788;10.366;2024-01-15T00:43:55;7.18;;;4.90;;
44476;SDS011;30180;44.788;10.366;2024-01-15T00:46:23;8.13;;;5.75;;
44476;SDS011;30180;44.788;10.366;2024-01-15T00:48:53;8.55;;;5.20;;
44476;SDS011;30180;44.788;10.366;2024-01-15T00:51:22;7.90;;;5.20;;
44476;SDS011;30180;44.788;10.366;2024-01-15T00:53:51;7.07;;;5.13;;
44476;SDS011;30180;44.788;10.366;2024-01-15T00:56:19;9.07;;;5.43;;
44476;SDS011;30180;44.788;10.366;2024-01-15T00:58:48;8.05;;;5.25;;
44476;SDS011;30180;44.788;10.366;2024-01-15T01:01:16;8.68;;;5.47;;
44476;SDS011;30180;44.788;10.366;2024-01-15T01:03:45;7.88;;;4.97;;
44476;SDS011;30180;44.788;10.366;2024-01-15T01:06:15;7.20;;;5.18;;
44476;SDS011;30180;44.788;10.366;2024-01-15T01:08:44;8.23;;;5.43;;
44476;SDS011;30180;44.788;10.366;2024-01-15T01:11:12;8.95;;;5.57;;
44476;SDS011;30180;44.788;10.366;2024-01-15T01:13:41;9.32;;;5.68;;
44476;SDS011;30180;44.788;10.366;2024-01-15T01:16:10;8.93;;;5.53;;
44476;SDS011;30180;44.788;10.366;2024-01-15T01:18:38;7.90;;;5.45;;
44476;SDS011;30180;44.788;10.366;2024-01-15T01:21:07;8.05;;;5.38;;
44476;SDS011;30180;44.788;10.366;2024-01-15T01:23:37;9.27;;;5.57;;
44476;SDS011;30180;44.788;10.366;2024-01-15T01:26:06;7.18;;;5.15;;
44476;SDS011;30180;44.788;10.366;2024-01-15T01:28:35;8.77;;;5.18;;
44476;SDS011;30180;44.788;10.366;2024-01-15T01:31:03;8.55;;;5.65;;
44476;SDS011;30180;44.788;10.366;2024-01-15T01:33:32;8.45;;;5.40;;
44476;SDS011;30180;44.788;10.366;2024-01-15T01:36:00;8.38;;;5.20;;
44476;SDS011;30180;44.788;10.366;2024-01-15T01:38:34;9.32;;;5.85;;
44476;SDS011;30180;44.788;10.366;2024-01-15T01:41:04;8.35;;;5.60;;
44476;SDS011;30180;44.788;10.366;2024-01-15T01:43:33;7.65;;;4.82;;
44476;SDS011;30180;44.788;10.366;2024-01-15T01:46:01;7.70;;;5.43;;
44476;SDS011;30180;44.788;10.366;2024-01-15T01:48:30;8.60;;;5.22;;
44476;SDS011;30180;44.788;10.366;2024-01-15T01:51:00;9.18;;;5.40;;
44476;SDS011;30180;44.788;10.366;2024-01-15T01:53:31;7.82;;;5.18;;
44476;SDS011;30180;44.788;10.366;2024-01-15T01:56:02;7.85;;;5.47;;
44476;SDS011;30180;44.788;10.366;2024-01-15T01:58:33;7.80;;;4.93;;
44476;SDS011;30180;44.788;10.366;2024-01-15T02:01:02;9.25;;;5.53;;
44476;SDS011;30180;44.788;10.366;2024-01-15T02:03:31;9.48;;;5.43;;
44476;SDS011;30180;44.788;10.366;2024-01-15T02:06:00;8.70;;;5.07;;
44476;SDS011;30180;44.788;10.366;2024-01-15T02:08:28;9.13;;;5.75;;
44476;SDS011;30180;44.788;10.366;2024-01-15T02:10:57;8.27;;;5.43;;
44476;SDS011;30180;44.788;10.366;2024-01-15T02:13:27;7.97;;;5.55;;
44476;SDS011;30180;44.788;10.366;2024-01-15T02:15:56;9.35;;;4.75;;
44476;SDS011;30180;44.788;10.366;2024-01-15T02:18:25;9.18;;;5.22;;
44476;SDS011;30180;44.788;10.366;2024-01-15T02:20:53;7.60;;;5.03;;
44476;SDS011;30180;44.788;10.366;2024-01-15T02:23:23;8.77;;;5.55;;
44476;SDS011;30180;44.788;10.366;2024-01-15T02:25:51;8.27;;;5.00;;
44476;SDS011;30180;44.788;10.366;2024-01-15T02:28:20;7.93;;;4.82;;
44476;SDS011;30180;44.788;10.366;2024-01-15T02:30:48;7.43;;;4.82;;
44476;SDS011;30180;44.788;10.366;2024-01-15T02:33:17;9.82;;;5.82;;
44476;SDS011;30180;44.788;10.366;2024-01-15T02:35:46;8.48;;;5.60;;
44476;SDS011;30180;44.788;10.366;2024-01-15T02:38:16;7.20;;;5.10;;
44476;SDS011;30180;44.788;10.366;2024-01-15T02:40:46;10.63;;;5.90;;
44476;SDS011;30180;44.788;10.366;2024-01-15T02:43:15;9.10;;;5.63;;
44476;SDS011;30180;44.788;10.366;2024-01-15T02:45:45;9.90;;;5.70;;
44476;SDS011;30180;44.788;10.366;2024-01-15T02:48:14;9.10;;;6.00;;
44476;SDS011;30180;44.788;10.366;2024-01-15T02:50:43;9.07;;;5.65;;
44476;SDS011;30180;44.788;10.366;2024-01-15T02:53:11;8.40;;;5.10;;
44476;SDS011;30180;44.788;10.366;2024-01-15T02:55:40;9.77;;;4.97;;
44476;SDS011;30180;44.788;10.366;2024-01-15T02:58:10;9.20;;;6.28;;
44476;SDS011;30180;44.788;10.366;2024-01-15T03:00:38;8.18;;;5.35;;
44476;SDS011;30180;44.788;10.366;2024-01-15T03:03:07;7.80;;;5.20;;
44476;SDS011;30180;44.788;10.366;2024-01-15T03:05:36;9.13;;;5.68;;
44476;SDS011;30180;44.788;10.366;2024-01-15T03:08:04;9.98;;;5.50;;
44476;SDS011;30180;44.788;10.366;2024-01-15T03:10:33;8.20;;;5.30;;
44476;SDS011;30180;44.788;10.366;2024-01-15T03:13:01;8.70;;;5.30;;
44476;SDS011;30180;44.788;10.366;2024-01-15T03:15:32;10.10;;;6.35;;
44476;SDS011;30180;44.788;10.366;2024-01-15T03:18:00;8.88;;;5.40;;
44476;SDS011;30180;44.788;10.366;2024-01-15T03:20:29;10.07;;;5.65;;
44476;SDS011;30180;44.788;10.366;2024-01-15T03:22:58;8.77;;;5.72;;
44476;SDS011;30180;44.788;10.366;2024-01-15T03:25:26;9.50;;;5.63;;
44476;SDS011;30180;44.788;10.366;2024-01-15T03:27:55;8.50;;;5.30;;
44476;SDS011;30180;44.788;10.366;2024-01-15T03:30:23;9.77;;;6.03;;
44476;SDS011;30180;44.788;10.366;2024-01-15T03:32:53;8.73;;;5.68;;
44476;SDS011;30180;44.788;10.366;2024-01-15T03:35:22;9.98;;;6.28;;
44476;SDS011;30180;44.788;10.366;2024-01-15T03:37:55;10.52;;;6.13;;
44476;SDS011;30180;44.788;10.366;2024-01-15T03:40:24;9.70;;;5.78;;
44476;SDS011;30180;44.788;10.366;2024-01-15T03:42:53;9.13;;;5.88;;
44476;SDS011;30180;44.788;10.366;2024-01-15T03:45:22;8.57;;;5.60;;
44476;SDS011;30180;44.788;10.366;2024-01-15T03:47:50;9.13;;;5.53;;
44476;SDS011;30180;44.788;10.366;2024-01-15T03:50:20;8.82;;;5.82;;
44476;SDS011;30180;44.788;10.366;2024-01-15T03:52:49;9.05;;;5.68;;
44476;SDS011;30180;44.788;10.366;2024-01-15T03:55:17;8.63;;;5.63;;
44476;SDS011;30180;44.788;10.366;2024-01-15T03:57:46;9.75;;;6.00;;
44476;SDS011;30180;44.788;10.366;2024-01-15T04:00:15;9.43;;;5.55;;
44476;SDS011;30180;44.788;10.366;2024-01-15T04:02:44;8.40;;;5.47;;
44476;SDS011;30180;44.788;10.366;2024-01-15T04:05:13;10.50;;;5.40;;
44476;SDS011;30180;44.788;10.366;2024-01-15T04:07:43;10.63;;;6.13;;
44476;SDS011;30180;44.788;10.366;2024-01-15T04:10:11;8.80;;;5.93;;
44476;SDS011;30180;44.788;10.366;2024-01-15T04:12:40;8.05;;;5.35;;
44476;SDS011;30180;44.788;10.366;2024-01-15T04:15:09;10.10;;;6.15;;
44476;SDS011;30180;44.788;10.366;2024-01-15T04:17:37;9.30;;;5.70;;
44476;SDS011;30180;44.788;10.366;2024-01-15T04:20:06;9.15;;;5.32;;
44476;SDS011;30180;44.788;10.366;2024-01-15T04:22:36;10.50;;;6.22;;
44476;SDS011;30180;44.788;10.366;2024-01-15T04:25:06;9.98;;;5.60;;
44476;SDS011;30180;44.788;10.366;2024-01-15T04:27:35;9.68;;;5.80;;
44476;SDS011;30180;44.788;10.366;2024-01-15T04:30:04;8.40;;;5.18;;
44476;SDS011;30180;44.788;10.366;2024-01-15T04:32:33;8.93;;;5.25;;
44476;SDS011;30180;44.788;10.366;2024-01-15T04:35:02;8.82;;;5.70;;
44476;SDS011;30180;44.788;10.366;2024-01-15T04:37:31;8.07;;;4.97;;
44476;SDS011;30180;44.788;10.366;2024-01-15T04:40:00;9.70;;;5.75;;
44476;SDS011;30180;44.788;10.366;2024-01-15T04:42:32;9.38;;;5.95;;
44476;SDS011;30180;44.788;10.366;2024-01-15T04:45:00;9.93;;;5.68;;
44476;SDS011;30180;44.788;10.366;2024-01-15T04:47:29;9.45;;;5.72;;
44476;SDS011;30180;44.788;10.366;2024-01-15T04:49:58;8.70;;;5.32;;
44476;SDS011;30180;44.788;10.366;2024-01-15T04:52:27;8.82;;;5.28;;
44476;SDS011;30180;44.788;10.366;2024-01-15T04:54:55;8.35;;;5.35;;
44476;SDS011;30180;44.788;10.366;2024-01-15T04:57:24;8.82;;;5.38;;
44476;SDS011;30180;44.788;10.366;2024-01-15T04:59:54;7.93;;;5.22;;
44476;SDS011;30180;44.788;10.366;2024-01-15T05:02:22;9.10;;;5.55;;
44476;SDS011;30180;44.788;10.366;2024-01-15T05:04:51;8.13;;;5.40;;
44476;SDS011;30180;44.788;10.366;2024-01-15T05:07:19;9.98;;;5.93;;
44476;SDS011;30180;44.788;10.366;2024-01-15T05:09:48;7.97;;;5.13;;
44476;SDS011;30180;44.788;10.366;2024-01-15T05:12:17;9.95;;;5.75;;
44476;SDS011;30180;44.788;10.366;2024-01-15T05:14:45;8.88;;;5.45;;
44476;SDS011;30180;44.788;10.366;2024-01-15T05:17:15;9.80;;;6.32;;
44476;SDS011;30180;44.788;10.366;2024-01-15T05:19:43;8.80;;;5.75;;
44476;SDS011;30180;44.788;10.366;2024-01-15T05:22:12;8.63;;;5.38;;
44476;SDS011;30180;44.788;10.366;2024-01-15T05:24:40;8.70;;;5.15;;
44476;SDS011;30180;44.788;10.366;2024-01-15T05:27:09;8.15;;;4.90;;
44476;SDS011;30180;44.788;10.366;2024-01-15T05:29:37;8.63;;;5.60;;
44476;SDS011;30180;44.788;10.366;2024-01-15T05:32:05;9.48;;;5.72;;
44476;SDS011;30180;44.788;10.366;2024-01-15T05:34:36;8.95;;;5.30;;
44476;SDS011;30180;44.788;10.366;2024-01-15T05:37:05;8.40;;;5.40;;
44476;SDS011;30180;44.788;10.366;2024-01-15T05:39:33;8.57;;;5.47;;
44476;SDS011;30180;44.788;10.366;2024-01-15T05:42:02;8.80;;;4.95;;
44476;SDS011;30180;44.788;10.366;2024-01-15T05:44:31;8.95;;;5.20;;
44476;SDS011;30180;44.788;10.366;2024-01-15T05:46:59;9.60;;;5.47;;
44476;SDS011;30180;44.788;10.366;2024-01-15T05:49:28;9.50;;;5.68;;
44476;SDS011;30180;44.788;10.366;2024-01-15T05:51:58;7.45;;;5.10;;
44476;SDS011;30180;44.788;10.366;2024-01-15T05:54:27;9.17;;;5.50;;
44476;SDS011;30180;44.788;10.366;2024-01-15T05:56:55;7.53;;;5.38;;
44476;SDS011;30180;44.788;10.366;2024-01-15T05:59:24;9.32;;;5.35;;
44476;SDS011;30180;44.788;10.366;2024-01-15T06:01:53;7.85;;;5.63;;
44476;SDS011;30180;44.788;10.366;2024-01-15T06:04:21;8.85;;;5.40;;
44476;SDS011;30180;44.788;10.366;2024-01-15T06:06:49;8.82;;;5.43;;
44476;SDS011;30180;44.788;10.366;2024-01-15T06:09:19;9.25;;;5.60;;
44476;SDS011;30180;44.788;10.366;2024-01-15T06:11:47;8.82;;;5.63;;
44476;SDS011;30180;44.788;10.366;2024-01-15T06:14:16;9.20;;;5.63;;
44476;SDS011;30180;44.788;10.366;2024-01-15T06:16:44;8.75;;;5.70;;
44476;SDS011;30180;44.788;10.366;2024-01-15T06:19:12;9.88;;;5.80;;
44476;SDS011;30180;44.788;10.366;2024-01-15T06:21:41;8.15;;;5.18;;
44476;SDS011;30180;44.788;10.366;2024-01-15T06:24:09;12.25;;;5.68;;
44476;SDS011;30180;44.788;10.366;2024-01-15T06:26:41;12.25;;;6.68;;
44476;SDS011;30180;44.788;10.366;2024-01-15T06:29:09;10.82;;;5.68;;
44476;SDS011;30180;44.788;10.366;2024-01-15T06:31:38;8.85;;;5.53;;
44476;SDS011;30180;44.788;10.366;2024-01-15T06:34:06;12.70;;;5.80;;
44476;SDS011;30180;44.788;10.366;2024-01-15T06:36:35;10.02;;;6.13;;
44476;SDS011;30180;44.788;10.366;2024-01-15T06:39:03;10.07;;;5.00;;
44476;SDS011;30180;44.788;10.366;2024-01-15T06:41:32;9.27;;;5.53;;
44476;SDS011;30180;44.788;10.366;2024-01-15T06:44:02;8.98;;;5.30;;
44476;SDS011;30180;44.788;10.366;2024-01-15T06:46:30;8.00;;;5.40;;
44476;SDS011;30180;44.788;10.366;2024-01-15T06:48:58;11.00;;;5.30;;
44476;SDS011;30180;44.788;10.366;2024-01-15T06:51:27;8.80;;;5.40;;
44476;SDS011;30180;44.788;10.366;2024-01-15T06:53:56;9.27;;;5.78;;
44476;SDS011;30180;44.788;10.366;2024-01-15T06:56:24;10.68;;;6.18;;
44476;SDS011;30180;44.788;10.366;2024-01-15T06:58:53;17.60;;;6.72;;
44476;SDS011;30180;44.788;10.366;2024-01-15T07:01:22;10.45;;;5.93;;
44476;SDS011;30180;44.788;10.366;2024-01-15T07:03:51;11.48;;;5.93;;
44476;SDS011;30180;44.788;10.366;2024-01-15T07:06:19;10.52;;;5.90;;
44476;SDS011;30180;44.788;10.366;2024-01-15T07:08:48;9.38;;;5.60;;
44476;SDS011;30180;44.788;10.366;2024-01-15T07:11:17;9.07;;;5.70;;
44476;SDS011;30180;44.788;10.366;2024-01-15T07:13:45;9.15;;;5.68;;
44476;SDS011;30180;44.788;10.366;2024-01-15T07:16:14;7.32;;;4.88;;
44476;SDS011;30180;44.788;10.366;2024-01-15T07:19:04;9.73;;;5.75;;
44476;SDS011;30180;44.788;10.366;2024-01-15T07:21:32;7.85;;;5.05;;
44476;SDS011;30180;44.788;10.366;2024-01-15T07:24:01;8.10;;;5.38;;
44476;SDS011;30180;44.788;10.366;2024-01-15T07:26:29;10.57;;;5.70;;
44476;SDS011;30180;44.788;10.366;2024-01-15T07:28:58;9.70;;;5.43;;
44476;SDS011;30180;44.788;10.366;2024-01-15T07:31:26;12.45;;;6.25;;
44476;SDS011;30180;44.788;10.366;2024-01-15T07:33:55;9.70;;;6.00;;
44476;SDS011;30180;44.788;10.366;2024-01-15T07:36:25;8.93;;;5.30;;
44476;SDS011;30180;44.788;10.366;2024-01-15T07:38:54;8.70;;;5.95;;
44476;SDS011;30180;44.788;10.366;2024-01-15T07:41:22;13.90;;;6.57;;
44476;SDS011;30180;44.788;10.366;2024-01-15T07:43:50;11.10;;;5.72;;
44476;SDS011;30180;44.788;10.366;2024-01-15T07:46:18;10.18;;;5.85;;
44476;SDS011;30180;44.788;10.366;2024-01-15T07:48:47;13.85;;;6.82;;
44476;SDS011;30180;44.788;10.366;2024-01-15T07:51:17;15.90;;;7.82;;
44476;SDS011;30180;44.788;10.366;2024-01-15T07:53:47;21.13;;;8.93;;
44476;SDS011;30180;44.788;10.366;2024-01-15T07:56:16;13.95;;;7.82;;
44476;SDS011;30180;44.788;10.366;2024-01-15T07:58:44;14.68;;;8.10;;
44476;SDS011;30180;44.788;10.366;2024-01-15T08:01:12;16.17;;;8.60;;
44476;SDS011;30180;44.788;10.366;2024-01-15T08:03:41;13.20;;;8.35;;
44476;SDS011;30180;44.788;10.366;2024-01-15T08:06:09;17.70;;;8.93;;
44476;SDS011;30180;44.788;10.366;2024-01-15T08:08:38;16.92;;;8.75;;
44476;SDS011;30180;44.788;10.366;2024-01-15T08:11:08;17.60;;;9.30;;
44476;SDS011;30180;44.788;10.366;2024-01-15T08:13:36;18.15;;;8.77;;
44476;SDS011;30180;44.788;10.366;2024-01-15T08:16:05;25.02;;;9.70;;
44476;SDS011;30180;44.788;10.366;2024-01-15T08:18:33;17.42;;;8.68;;
44476;SDS011;30180;44.788;10.366;2024-01-15T08:21:02;14.32;;;8.70;;
44476;SDS011;30180;44.788;10.366;2024-01-15T08:23:30;14.57;;;8.60;;
44476;SDS011;30180;44.788;10.366;2024-01-15T08:25:59;16.42;;;8.57;;
44476;SDS011;30180;44.788;10.366;2024-01-15T08:28:28;18.13;;;8.23;;
44476;SDS011;30180;44.788;10.366;2024-01-15T08:30:57;15.63;;;8.20;;
44476;SDS011;30180;44.788;10.366;2024-01-15T08:33:25;17.80;;;8.30;;
44476;SDS011;30180;44.788;10.366;2024-01-15T08:35:54;20.70;;;8.15;;
44476;SDS011;30180;44.788;10.366;2024-01-15T08:38:22;16.95;;;7.68;;
44476;SDS011;30180;44.788;10.366;2024-01-15T08:40:51;14.35;;;7.70;;
44476;SDS011;30180;44.788;10.366;2024-01-15T08:43:23;11.98;;;7.03;;
44476;SDS011;30180;44.788;10.366;2024-01-15T08:45:53;12.60;;;7.38;;
44476;SDS011;30180;44.788;10.366;2024-01-15T08:48:21;13.85;;;7.22;;
44476;SDS011;30180;44.788;10.366;2024-01-15T08:50:49;13.32;;;7.88;;
44476;SDS011;30180;44.788;10.366;2024-01-15T08:53:18;14.23;;;7.72;;
44476;SDS011;30180;44.788;10.366;2024-01-15T08:55:47;17.58;;;7.55;;
44476;SDS011;30180;44.788;10.366;2024-01-15T08:58:15;18.55;;;7.68;;
44476;SDS011;30180;44.788;10.366;2024-01-15T09:00:44;12.82;;;6.95;;
44476;SDS011;30180;44.788;10.366;2024-01-15T09:03:14;17.38;;;7.40;;
44476;SDS011;30180;44.788;10.366;2024-01-15T09:05:42;14.63;;;7.03;;
44476;SDS011;30180;44.788;10.366;2024-01-15T09:08:11;13.27;;;7.38;;
44476;SDS011;30180;44.788;10.366;2024-01-15T09:10:39;14.15;;;7.60;;
44476;SDS011;30180;44.788;10.366;2024-01-15T09:13:08;15.75;;;7.28;;
44476;SDS011;30180;44.788;10.366;2024-01-15T09:15:36;13.50;;;7.93;;
44476;SDS011;30180;44.788;10.366;2024-01-15T09:18:05;14.43;;;6.88;;
44476;SDS011;30180;44.788;10.366;2024-01-15T09:20:35;12.70;;;8.13;;
44476;SDS011;30180;44.788;10.366;2024-01-15T09:23:05;13.70;;;7.53;;
44476;SDS011;30180;44.788;10.366;2024-01-15T09:25:33;12.95;;;7.75;;
44476;SDS011;30180;44.788;10.366;2024-01-15T09:28:02;13.30;;;7.78;;
44476;SDS011;30180;44.788;10.366;2024-01-15T09:30:30;13.38;;;7.25;;
44476;SDS011;30180;44.788;10.366;2024-01-15T09:32:59;15.27;;;7.60;;
44476;SDS011;30180;44.788;10.366;2024-01-15T09:35:28;13.40;;;8.40;;
44476;SDS011;30180;44.788;10.366;2024-01-15T09:37:58;14.90;;;7.70;;
44476;SDS011;30180;44.788;10.366;2024-01-15T09:40:27;13.13;;;7.70;;
44476;SDS011;30180;44.788;10.366;2024-01-15T09:43:00;14.95;;;7.57;;
44476;SDS011;30180;44.788;10.366;2024-01-15T09:45:30;14.63;;;7.43;;
44476;SDS011;30180;44.788;10.366;2024-01-15T09:47:58;16.80;;;7.38;;
44476;SDS011;30180;44.788;10.366;2024-01-15T09:50:27;16.98;;;7.10;;
44476;SDS011;30180;44.788;10.366;2024-01-15T09:52:57;20.63;;;7.40;;
44476;SDS011;30180;44.788;10.366;2024-01-15T09:57:55;17.85;;;8.02;;
44476;SDS011;30180;44.788;10.366;2024-01-15T10:00:25;18.40;;;7.25;;
44476;SDS011;30180;44.788;10.366;2024-01-15T10:02:56;15.10;;;7.38;;
44476;SDS011;30180;44.788;10.366;2024-01-15T10:05:26;19.07;;;7.83;;
44476;SDS011;30180;44.788;10.366;2024-01-15T10:07:56;15.07;;;7.63;;
44476;SDS011;30180;44.788;10.366;2024-01-15T10:10:28;16.70;;;7.78;;
44476;SDS011;30180;44.788;10.366;2024-01-15T10:12:58;14.07;;;7.95;;
44476;SDS011;30180;44.788;10.366;2024-01-15T10:15:26;12.85;;;7.57;;
44476;SDS011;30180;44.788;10.366;2024-01-15T10:17:55;16.65;;;7.80;;
44476;SDS011;30180;44.788;10.366;2024-01-15T10:20:24;16.73;;;7.40;;
44476;SDS011;30180;44.788;10.366;2024-01-15T10:22:52;14.18;;;7.45;;
44476;SDS011;30180;44.788;10.366;2024-01-15T10:25:22;16.75;;;8.57;;
44476;SDS011;30180;44.788;10.366;2024-01-15T10:27:58;14.30;;;7.15;;
44476;SDS011;30180;44.788;10.366;2024-01-15T10:30:28;16.40;;;7.25;;
44476;SDS011;30180;44.788;10.366;2024-01-15T10:32:57;14.07;;;7.85;;
44476;SDS011;30180;44.788;10.366;2024-01-15T10:35:28;12.32;;;7.78;;
44476;SDS011;30180;44.788;10.366;2024-01-15T10:37:58;13.18;;;7.70;;
44476;SDS011;30180;44.788;10.366;2024-01-15T10:40:29;11.75;;;6.82;;
44476;SDS011;30180;44.788;10.366;2024-01-15T10:42:58;14.10;;;7.30;;
44476;SDS011;30180;44.788;10.366;2024-01-15T10:45:27;16.00;;;7.13;;
44476;SDS011;30180;44.788;10.366;2024-01-15T10:47:56;13.85;;;7.00;;
44476;SDS011;30180;44.788;10.366;2024-01-15T10:50:26;14.63;;;7.03;;
44476;SDS011;30180;44.788;10.366;2024-01-15T10:52:55;11.52;;;7.35;;
44476;SDS011;30180;44.788;10.366;2024-01-15T10:55:24;14.82;;;7.38;;
44476;SDS011;30180;44.788;10.366;2024-01-15T10:57:55;13.27;;;7.65;;
44476;SDS011;30180;44.788;10.366;2024-01-15T11:00:25;10.95;;;6.20;;
44476;SDS011;30180;44.788;10.366;2024-01-15T11:02:54;11.85;;;6.43;;
44476;SDS011;30180;44.788;10.366;2024-01-15T11:05:23;17.23;;;7.25;;
44476;SDS011;30180;44.788;10.366;2024-01-15T11:07:54;14.35;;;8.48;;
44476;SDS011;30180;44.788;10.366;2024-01-15T11:10:39;25.40;;;9.80;;
44476;SDS011;30180;44.788;10.366;2024-01-15T11:13:15;16.20;;;8.70;;
44476;SDS011;30180;44.788;10.366;2024-01-15T11:15:55;14.77;;;8.43;;
44476;SDS011;30180;44.788;10.366;2024-01-15T11:18:28;17.15;;;8.95;;
44476;SDS011;30180;44.788;10.366;2024-01-15T11:23:54;12.45;;;7.93;;
44476;SDS011;30180;44.788;10.366;2024-01-15T11:26:28;12.32;;;8.07;;
44476;SDS011;30180;44.788;10.366;2024-01-15T11:29:04;14.13;;;7.57;;
44476;SDS011;30180;44.788;10.366;2024-01-15T11:37:25;13.00;;;7.15;;
44476;SDS011;30180;44.788;10.366;2024-01-15T11:39:54;10.95;;;6.88;;
44476;SDS011;30180;44.788;10.366;2024-01-15T11:42:24;13.07;;;7.15;;
44476;SDS011;30180;44.788;10.366;2024-01-15T11:44:53;11.32;;;6.38;;
44476;SDS011;30180;44.788;10.366;2024-01-15T11:50:26;12.75;;;6.55;;
44476;SDS011;30180;44.788;10.366;2024-01-15T11:52:59;9.50;;;6.30;;
44476;SDS011;30180;44.788;10.366;2024-01-15T11:55:33;9.18;;;6.18;;
44476;SDS011;30180;44.788;10.366;2024-01-15T11:58:03;12.43;;;6.97;;
44476;SDS011;30180;44.788;10.366;2024-01-15T12:00:40;11.05;;;6.32;;
44476;SDS011;30180;44.788;10.366;2024-01-15T12:03:10;10.70;;;6.97;;
44476;SDS011;30180;44.788;10.366;2024-01-15T12:05:39;13.52;;;6.30;;
44476;SDS011;30180;44.788;10.366;2024-01-15T12:08:08;10.77;;;6.78;;
44476;SDS011;30180;44.788;10.366;2024-01-15T12:10:38;11.45;;;6.60;;
44476;SDS011;30180;44.788;10.366;2024-01-15T12:13:09;10.80;;;6.23;;
44476;SDS011;30180;44.788;10.366;2024-01-15T12:15:41;15.82;;;6.95;;
44476;SDS011;30180;44.788;10.366;2024-01-15T12:18:11;10.27;;;6.47;;
44476;SDS011;30180;44.788;10.366;2024-01-15T12:20:41;11.85;;;6.50;;
44476;SDS011;30180;44.788;10.366;2024-01-15T12:23:14;10.20;;;6.15;;
44476;SDS011;30180;44.788;10.366;2024-01-15T12:25:43;14.13;;;6.43;;
44476;SDS011;30180;44.788;10.366;2024-01-15T12:28:12;14.43;;;6.47;;
44476;SDS011;30180;44.788;10.366;2024-01-15T12:30:41;15.43;;;6.47;;
44476;SDS011;30180;44.788;10.366;2024-01-15T12:33:11;11.90;;;6.15;;
44476;SDS011;30180;44.788;10.366;2024-01-15T12:35:39;12.90;;;6.30;;
44476;SDS011;30180;44.788;10.366;2024-01-15T12:38:08;11.00;;;6.03;;
44476;SDS011;30180;44.788;10.366;2024-01-15T12:40:38;10.67;;;6.17;;
44476;SDS011;30180;44.788;10.366;2024-01-15T12:43:06;10.02;;;5.72;;
44476;SDS011;30180;44.788;10.366;2024-01-15T12:45:35;12.32;;;6.10;;
44476;SDS011;30180;44.788;10.366;2024-01-15T12:48:06;10.73;;;6.10;;
44476;SDS011;30180;44.788;10.366;2024-01-15T12:50:35;9.97;;;6.13;;
44476;SDS011;30180;44.788;10.366;2024-01-15T12:53:03;11.25;;;5.90;;
44476;SDS011;30180;44.788;10.366;2024-01-15T12:55:31;11.57;;;5.75;;
44476;SDS011;30180;44.788;10.366;2024-01-15T12:58:01;9.65;;;6.28;;
44476;SDS011;30180;44.788;10.366;2024-01-15T13:00:29;11.07;;;5.75;;
44476;SDS011;30180;44.788;10.366;2024-01-15T13:02:58;10.38;;;5.57;;
44476;SDS011;30180;44.788;10.366;2024-01-15T13:05:28;11.55;;;6.07;;
44476;SDS011;30180;44.788;10.366;2024-01-15T13:07:59;10.77;;;6.07;;
44476;SDS011;30180;44.788;10.366;2024-01-15T13:10:28;11.73;;;6.10;;
44476;SDS011;30180;44.788;10.366;2024-01-15T13:12:57;9.32;;;5.45;;
44476;SDS011;30180;44.788;10.366;2024-01-15T13:15:26;9.80;;;6.20;;
44476;SDS011;30180;44.788;10.366;2024-01-15T13:17:54;12.65;;;6.47;;
44476;SDS011;30180;44.788;10.366;2024-01-15T13:20:22;13.10;;;6.07;;
44476;SDS011;30180;44.788;10.366;2024-01-15T13:22:52;9.25;;;6.05;;
44476;SDS011;30180;44.788;10.366;2024-01-15T13:25:21;9.77;;;5.63;;
44476;SDS011;30180;44.788;10.366;2024-01-15T13:27:51;11.00;;;6.20;;
44476;SDS011;30180;44.788;10.366;2024-01-15T13:30:19;8.45;;;5.82;;
44476;SDS011;30180;44.788;10.366;2024-01-15T13:32:48;10.88;;;5.25;;
44476;SDS011;30180;44.788;10.366;2024-01-15T13:35:17;10.30;;;5.57;;
44476;SDS011;30180;44.788;10.366;2024-01-15T13:37:45;12.43;;;6.13;;
44476;SDS011;30180;44.788;10.366;2024-01-15T13:40:15;11.82;;;5.63;;
44476;SDS011;30180;44.788;10.366;2024-01-15T13:42:46;12.80;;;6.35;;
44476;SDS011;30180;44.788;10.366;2024-01-15T13:45:15;10.85;;;5.22;;
44476;SDS011;30180;44.788;10.366;2024-01-15T13:47:44;8.65;;;5.25;;
44476;SDS011;30180;44.788;10.366;2024-01-15T13:50:12;10.75;;;5.30;;
44476;SDS011;30180;44.788;10.366;2024-01-15T13:52:41;10.07;;;5.80;;
44476;SDS011;30180;44.788;10.366;2024-01-15T13:55:09;11.13;;;5.57;;
44476;SDS011;30180;44.788;10.366;2024-01-15T13:57:39;8.77;;;5.88;;
44476;SDS011;30180;44.788;10.366;2024-01-15T14:00:08;7.95;;;5.43;;
44476;SDS011;30180;44.788;10.366;2024-01-15T14:02:39;8.38;;;5.38;;
44476;SDS011;30180;44.788;10.366;2024-01-15T14:05:08;11.80;;;6.38;;
44476;SDS011;30180;44.788;10.366;2024-01-15T14:07:39;10.75;;;6.00;;
44476;SDS011;30180;44.788;10.366;2024-01-15T14:10:08;11.68;;;5.70;;
44476;SDS011;30180;44.788;10.366;2024-01-15T14:12:38;9.63;;;5.72;;
44476;SDS011;30180;44.788;10.366;2024-01-15T14:15:07;12.85;;;5.88;;
44476;SDS011;30180;44.788;10.366;2024-01-15T14:17:36;9.38;;;5.68;;
44476;SDS011;30180;44.788;10.366;2024-01-15T14:20:06;10.45;;;5.55;;
44476;SDS011;30180;44.788;10.366;2024-01-15T14:25:04;9.45;;;5.18;;
44476;SDS011;30180;44.788;10.366;2024-01-15T14:27:33;10.32;;;5.28;;
44476;SDS011;30180;44.788;10.366;2024-01-15T14:30:03;8.95;;;5.38;;
44476;SDS011;30180;44.788;10.366;2024-01-15T14:32:35;12.32;;;5.47;;
44476;SDS011;30180;44.788;10.366;2024-01-15T14:35:03;11.63;;;5.18;;
44476;SDS011;30180;44.788;10.366;2024-01-15T14:37:32;8.70;;;5.43;;
44476;SDS011;30180;44.788;10.366;2024-01-15T14:40:01;13.07;;;5.22;;
44476;SDS011;30180;44.788;10.366;2024-01-15T14:42:30;16.15;;;5.40;;
44476;SDS011;30180;44.788;10.366;2024-01-15T14:44:59;12.93;;;5.40;;
44476;SDS011;30180;44.788;10.366;2024-01-15T14:47:30;9.65;;;4.65;;
44476;SDS011;30180;44.788;10.366;2024-01-15T14:49:59;13.13;;;5.68;;
44476;SDS011;30180;44.788;10.366;2024-01-15T14:52:27;9.15;;;5.20;;
44476;SDS011;30180;44.788;10.366;2024-01-15T14:54:56;9.10;;;5.00;;
44476;SDS011;30180;44.788;10.366;2024-01-15T14:57:24;9.68;;;5.03;;